Time;durP1;ratioP1;P1;durP2;ratioP2;P2;SDS_P1;SDS_P2;PMS_P1;PMS_P2;Temp;Humidity;BMP_temperature;BMP_pressure;BME280_temperature;BME280_humidity;BME280_pressure;Samples;Min_cycle;Max_cycle;Signal;HPM_P1;HPM_P2
2022/11/24 00:02:12;;;;;;;22.95;8.93;;;7.30;99.90;;;;;;5017111;28;20041;-57
2022/11/24 00:04:38;;;;;;;24.80;10.48;;;7.30;99.90;;;;;;5012475;28;20124;-57
2022/11/24 00:07:05;;;;;;;21.75;8.90;;;7.30;99.90;;;;;;5013730;28;20346;-57
2022/11/24 00:09:31;;;;;;;16.05;8.27;;;;;;;;;;4993069;28;20132;-57
2022/11/24 00:12:00;;;;;;;20.95;9.38;;;;;;;;;;5073793;22;20102;-61
2022/11/24 00:14:26;;;;;;;24.75;8.52;;;;;;;;;;5017248;28;20053;-64
2022/11/24 00:16:52;;;;;;;23.45;9.10;;;;;;;;;;5043525;28;20065;-64
2022/11/24 00:19:18;;;;;;;20.00;8.65;;;;;;;;;;5029598;28;20061;-64
2022/11/24 00:21:43;;;;;;;24.80;9.73;;;7.10;99.90;;;;;;5030340;28;20087;-64
2022/11/24 00:24:10;;;;;;;18.58;8.63;;;7.00;99.90;;;;;;5030326;28;20025;-64
2022/11/24 00:26:37;;;;;;;23.77;9.45;;;7.00;99.90;;;;;;5029601;28;20037;-64
2022/11/24 00:29:04;;;;;;;23.27;9.38;;;;;;;;;;5029773;28;20037;-64
2022/11/24 00:31:33;;;;;;;23.48;9.50;;;7.10;99.90;;;;;;5029387;28;20040;-64
2022/11/24 00:34:00;;;;;;;23.95;9.15;;;;;;;;;;5033015;28;20038;-64
2022/11/24 00:36:27;;;;;;;19.13;8.80;;;;;;;;;;5038282;28;20073;-64
2022/11/24 00:38:55;;;;;;;21.05;9.20;;;7.80;99.90;;;;;;5029979;28;20037;-64
2022/11/24 00:41:21;;;;;;;20.15;8.77;;;7.00;99.90;;;;;;5029903;28;20034;-64
2022/11/24 00:43:47;;;;;;;22.63;9.82;;;;;;;;;;5030001;28;20045;-64
2022/11/24 00:46:13;;;;;;;22.30;9.07;;;;;;;;;;5029496;28;20103;-64
2022/11/24 00:48:39;;;;;;;21.20;9.82;;;7.10;99.90;;;;;;5029175;28;20075;-64
2022/11/24 00:51:07;;;;;;;18.35;8.57;;;7.00;99.90;;;;;;5029855;28;20069;-64
2022/11/24 00:53:33;;;;;;;19.45;7.97;;;;;;;;;;5021012;28;20043;-64
2022/11/24 00:55:59;;;;;;;19.20;7.95;;;;;;;;;;5033230;28;20042;-64
2022/11/24 00:58:25;;;;;;;26.33;8.82;;;;;;;;;;5037160;28;20033;-64
2022/11/24 01:00:51;;;;;;;20.15;8.13;;;;;;;;;;5034801;28;20037;-64
2022/11/24 01:03:18;;;;;;;18.65;7.35;;;7.30;99.90;;;;;;5010809;28;20049;-64
2022/11/24 01:05:44;;;;;;;26.27;9.77;;;7.60;99.90;;;;;;5029802;28;20037;-64
2022/11/24 01:08:11;;;;;;;23.52;7.93;;;7.50;99.90;;;;;;5028262;28;20442;-64
2022/11/24 01:10:36;;;;;;;24.35;7.38;;;7.60;99.90;;;;;;5021408;28;20041;-64
2022/11/24 01:13:03;;;;;;;19.17;6.38;;;;;;;;;;5024728;28;20463;-64
2022/11/24 01:15:29;;;;;;;20.88;6.63;;;7.70;99.90;;;;;;5029353;28;20041;-64
2022/11/24 01:17:55;;;;;;;25.92;6.97;;;;;;;;;;5037603;28;20121;-64
2022/11/24 01:20:21;;;;;;;20.65;5.55;;;8.10;99.90;;;;;;5029801;28;20547;-64
2022/11/24 01:22:48;;;;;;;19.38;5.53;;;;;;;;;;5029794;28;20076;-64
2022/11/24 01:25:14;;;;;;;22.58;5.93;;;;;;;;;;5037919;28;20123;-64
2022/11/24 01:27:40;;;;;;;21.33;6.35;;;;;;;;;;5030051;28;20041;-64
2022/11/24 01:30:06;;;;;;;17.50;5.47;;;;;;;;;;5035296;28;20045;-64
2022/11/24 01:32:32;;;;;;;20.17;5.65;;;8.30;99.90;;;;;;5041388;28;20038;-64
2022/11/24 01:35:02;;;;;;;24.30;5.82;;;;;;;;;;5049319;28;20049;-64
2022/11/24 01:37:31;;;;;;;18.98;5.63;;;;;;;;;;5025085;28;20040;-64
2022/11/24 01:39:56;;;;;;;19.67;4.85;;;8.20;99.90;;;;;;5039453;28;20037;-64
2022/11/24 01:42:22;;;;;;;19.38;5.13;;;;;;;;;;5032943;28;20507;-64
2022/11/24 01:45:11;;;;;;;17.92;5.35;;;8.90;99.90;;;;;;5044675;28;20418;-64
2022/11/24 01:47:42;;;;;;;20.92;5.03;;;;;;;;;;5030283;28;20048;-64
2022/11/24 01:50:15;;;;;;;15.20;4.53;;;;;;;;;;5040279;28;20068;-64
2022/11/24 01:52:47;;;;;;;18.25;5.43;;;;;;;;;;5030844;28;20046;-64
2022/11/24 01:55:15;;;;;;;19.35;5.63;;;;;;;;;;5033209;28;20041;-64
2022/11/24 01:57:44;;;;;;;19.52;4.70;;;;;;;;;;5027855;28;20626;-64
2022/11/24 02:00:11;;;;;;;16.15;4.90;;;;;;;;;;5043941;28;20037;-64
2022/11/24 02:02:38;;;;;;;18.25;4.90;;;;;;;;;;5035198;28;20049;-64
2022/11/24 02:05:12;;;;;;;19.95;4.80;;;;;;;;;;5032759;28;20052;-64
2022/11/24 02:07:38;;;;;;;16.17;4.57;;;;;;;;;;5031483;28;20550;-64
2022/11/24 02:10:09;;;;;;;15.73;4.00;;;8.50;99.90;;;;;;5032010;28;20561;-64
2022/11/24 02:12:36;;;;;;;17.67;4.88;;;;;;;;;;5032543;28;20524;-64
2022/11/24 02:15:02;;;;;;;17.48;4.53;;;8.10;99.90;;;;;;5014635;28;20506;-64
2022/11/24 02:17:28;;;;;;;23.38;5.32;;;;;;;;;;5029653;28;20037;-64
2022/11/24 02:19:59;;;;;;;17.25;4.20;;;8.90;99.90;;;;;;5039980;28;20091;-64
2022/11/24 02:22:31;;;;;;;20.80;5.25;;;;;;;;;;5030581;28;20411;-64
2022/11/24 02:25:15;;;;;;;16.92;4.93;;;;;;;;;;5026607;28;20491;-65
2022/11/24 02:27:43;;;;;;;20.27;4.20;;;8.50;99.90;;;;;;5013185;28;20453;-64
2022/11/24 02:30:09;;;;;;;15.35;4.13;;;;;;;;;;5032755;28;20044;-64
2022/11/24 02:32:38;;;;;;;13.65;3.53;;;;;;;;;;5031854;28;20045;-64
2022/11/24 02:35:06;;;;;;;16.40;4.10;;;8.90;99.90;;;;;;5031853;28;20508;-64
2022/11/24 02:37:32;;;;;;;20.48;4.28;;;;;;;;;;5031861;28;20521;-65
2022/11/24 02:39:58;;;;;;;17.25;4.22;;;;;;;;;;5031843;28;20586;-65
2022/11/24 02:42:27;;;;;;;12.57;3.97;;;8.50;99.90;;;;;;5041925;28;20059;-64
2022/11/24 02:44:55;;;;;;;15.35;3.70;;;;;;;;;;5024527;28;20037;-65
2022/11/24 02:47:21;;;;;;;15.15;4.40;;;;;;;;;;5030831;28;20041;-65
2022/11/24 02:49:47;;;;;;;15.10;4.13;;;;;;;;;;5042593;28;20048;-64
2022/11/24 02:52:13;;;;;;;13.35;4.05;;;;;;;;;;5016724;28;20037;-65
2022/11/24 02:54:39;;;;;;;15.70;3.97;;;;;;;;;;5032841;28;20038;-65
2022/11/24 02:57:05;;;;;;;17.23;3.63;;;8.10;99.90;;;;;;5030829;28;20491;-65
2022/11/24 02:59:31;;;;;;;16.13;3.80;;;;;;;;;;5031730;28;20038;-65
2022/11/24 03:01:57;;;;;;;18.45;3.95;;;;;;;;;;5040359;28;20095;-65
2022/11/24 03:04:23;;;;;;;18.83;4.20;;;;;;;;;;5031668;28;20399;-65
2022/11/24 03:06:49;;;;;;;14.27;3.45;;;7.90;99.90;;;;;;5031389;28;20474;-65
2022/11/24 03:09:15;;;;;;;18.25;3.70;;;;;;;;;;5031659;28;20061;-65
2022/11/24 03:11:41;;;;;;;15.95;5.28;;;;;;;;;;5031563;28;20064;-65
2022/11/24 03:14:07;;;;;;;14.25;4.45;;;8.50;99.90;;;;;;5031379;28;20040;-65
2022/11/24 03:16:33;;;;;;;15.43;4.25;;;;;;;;;;5013482;28;20052;-65
2022/11/24 03:18:59;;;;;;;17.25;3.88;;;;;;;;;;5035617;28;20409;-65
2022/11/24 03:21:25;;;;;;;14.98;3.88;;;;;;;;;;5043691;28;20438;-65
2022/11/24 03:23:52;;;;;;;19.33;4.25;;;7.70;99.90;;;;;;5031580;28;20040;-64
2022/11/24 03:26:20;;;;;;;18.02;4.78;;;7.90;99.90;;;;;;5031004;28;20034;-65
2022/11/24 03:28:46;;;;;;;18.52;4.45;;;;;;;;;;5013020;28;20056;-65
2022/11/24 03:31:12;;;;;;;16.13;4.57;;;;;;;;;;5031211;28;20045;-65
2022/11/24 03:33:38;;;;;;;17.85;4.00;;;7.60;99.90;;;;;;5031114;28;20037;-65
2022/11/24 03:36:06;;;;;;;16.08;4.50;;;;;;;;;;5031275;28;20037;-64
2022/11/24 03:38:31;;;;;;;13.13;3.88;;;7.90;99.90;;;;;;5030195;28;20033;-65
2022/11/24 03:40:57;;;;;;;23.15;4.32;;;8.00;99.90;;;;;;5031098;28;20056;-64
2022/11/24 03:43:23;;;;;;;19.63;4.65;;;;;;;;;;5030603;28;20088;-64
2022/11/24 03:45:49;;;;;;;18.45;4.22;;;8.20;99.90;;;;;;5031146;28;20069;-64
2022/11/24 03:48:17;;;;;;;16.92;4.10;;;7.90;99.90;;;;;;5018226;28;20112;-64
2022/11/24 03:50:43;;;;;;;12.32;3.60;;;;;;;;;;5012991;28;20084;-64
2022/11/24 03:53:09;;;;;;;14.60;4.47;;;;;;;;;;5030763;28;20037;-64
2022/11/24 03:55:36;;;;;;;14.77;3.70;;;;;;;;;;5030477;28;20045;-64
2022/11/24 03:58:02;;;;;;;16.58;3.40;;;;;;;;;;5029924;28;20500;-64
2022/11/24 04:00:28;;;;;;;18.42;4.72;;;;;;;;;;5029654;28;20040;-64
2022/11/24 04:02:54;;;;;;;15.18;3.58;;;;;;;;;;5030858;28;20072;-64
2022/11/24 04:05:20;;;;;;;12.38;4.18;;;;;;;;;;5030410;28;20049;-64
2022/11/24 04:07:46;;;;;;;17.48;4.53;;;;;;;;;;5029942;28;20052;-65
2022/11/24 04:10:12;;;;;;;14.30;4.28;;;;;;;;;;5030224;28;20042;-65
2022/11/24 04:12:43;;;;;;;12.75;4.18;;;8.10;99.90;;;;;;5042399;28;20048;-65
2022/11/24 04:15:11;;;;;;;13.60;3.42;;;7.90;99.90;;;;;;5012735;28;20041;-64
2022/11/24 04:17:36;;;;;;;14.82;4.15;;;8.10;99.90;;;;;;5029807;28;20052;-64
2022/11/24 04:20:02;;;;;;;12.02;3.53;;;;;;;;;;5012795;28;20060;-65
2022/11/24 04:22:28;;;;;;;13.77;4.25;;;7.90;99.90;;;;;;5030230;28;20041;-64
2022/11/24 04:24:54;;;;;;;18.25;5.53;;;;;;;;;;5022958;28;20041;-65
2022/11/24 04:27:20;;;;;;;16.00;4.47;;;;;;;;;;5029465;28;20048;-65
2022/11/24 04:29:46;;;;;;;11.10;3.17;;;;;;;;;;5030312;28;20045;-64
2022/11/24 04:32:12;;;;;;;13.40;3.85;;;;;;;;;;5030488;28;20479;-64
2022/11/24 04:34:38;;;;;;;22.55;3.95;;;7.90;99.90;;;;;;5029719;28;20045;-64
2022/11/24 04:37:03;;;;;;;20.30;4.20;;;7.90;99.90;;;;;;5012348;28;20045;-64
2022/11/24 04:39:29;;;;;;;12.13;3.67;;;7.90;99.90;;;;;;5038164;28;20029;-64
2022/11/24 04:41:55;;;;;;;13.85;4.45;;;;;;;;;;5031179;28;20140;-64
2022/11/24 04:44:21;;;;;;;19.20;4.47;;;;;;;;;;5030304;28;20033;-64
2022/11/24 04:46:47;;;;;;;21.02;4.40;;;;;;;;;;5037804;28;20120;-64
2022/11/24 04:49:13;;;;;;;14.85;3.40;;;;;;;;;;5036205;28;20116;-64
2022/11/24 04:51:39;;;;;;;14.65;4.47;;;;;;;;;;5034888;28;20411;-65
2022/11/24 04:54:06;;;;;;;18.13;3.70;;;;;;;;;;5029898;28;20033;-65
2022/11/24 04:56:32;;;;;;;20.33;5.20;;;;;;;;;;5042927;28;20112;-64
2022/11/24 04:58:59;;;;;;;17.33;5.10;;;7.30;99.90;;;;;;5030279;28;20057;-64
2022/11/24 05:01:25;;;;;;;17.35;3.90;;;7.40;99.90;;;;;;5030336;28;20069;-64
2022/11/24 05:03:55;;;;;;;19.52;3.85;;;;;;;;;;5019647;28;20120;-64
2022/11/24 05:06:21;;;;;;;17.77;4.03;;;;;;;;;;5044071;28;20045;-64
2022/11/24 05:08:48;;;;;;;21.52;4.55;;;7.50;99.90;;;;;;5028593;28;20080;-64
2022/11/24 05:11:14;;;;;;;19.08;4.05;;;;;;;;;;5034163;28;20075;-64
2022/11/24 05:13:40;;;;;;;17.92;3.67;;;;;;;;;;5034054;28;20049;-64
2022/11/24 05:16:06;;;;;;;13.88;3.20;;;;;;;;;;5034026;28;20098;-64
2022/11/24 05:18:32;;;;;;;14.55;4.38;;;;;;;;;;5033131;28;20033;-64
2022/11/24 05:20:58;;;;;;;12.80;4.68;;;;;;;;;;5033704;28;20565;-64
2022/11/24 05:23:24;;;;;;;13.65;3.53;;;;;;;;;;5032341;28;20491;-64
2022/11/24 05:25:50;;;;;;;14.45;3.55;;;;;;;;;;5032897;28;20049;-64
2022/11/24 05:28:17;;;;;;;13.13;4.50;;;7.40;99.90;;;;;;5023395;28;20045;-64
2022/11/24 05:30:43;;;;;;;14.95;3.95;;;7.30;99.90;;;;;;5036927;28;20041;-64
2022/11/24 05:33:17;;;;;;;20.13;3.60;;;7.50;99.90;;;;;;5030679;28;20076;-64
2022/11/24 05:35:47;;;;;;;20.10;4.63;;;;;;;;;;5032961;28;20103;-64
2022/11/24 05:38:16;;;;;;;18.23;5.10;;;7.20;99.90;;;;;;5031952;28;20522;-64
2022/11/24 05:40:43;;;;;;;15.20;3.72;;;;;;;;;;5033106;28;20038;-64
2022/11/24 05:43:12;;;;;;;19.52;4.47;;;;;;;;;;5027047;28;20124;-64
2022/11/24 05:45:38;;;;;;;14.25;4.40;;;7.50;99.90;;;;;;5009944;28;20057;-64
2022/11/24 05:48:08;;;;;;;11.75;3.85;;;7.40;99.90;;;;;;5033383;28;20113;-64
2022/11/24 05:50:34;;;;;;;16.38;5.57;;;7.60;99.90;;;;;;5032544;28;20112;-64
2022/11/24 05:53:04;;;;;;;15.95;3.78;;;;;;;;;;5028834;28;20508;-64
2022/11/24 05:55:31;;;;;;;15.55;3.58;;;;;;;;;;5027510;28;20136;-64
2022/11/24 05:58:00;;;;;;;14.30;3.85;;;;;;;;;;5025965;28;20074;-64
2022/11/24 06:00:27;;;;;;;15.63;3.80;;;;;;;;;;5011499;28;20681;-65
2022/11/24 06:02:53;;;;;;;9.90;3.30;;;;;;;;;;5020578;28;20037;-65
2022/11/24 06:05:19;;;;;;;13.15;3.70;;;;;;;;;;5009351;28;20136;-64
2022/11/24 06:07:45;;;;;;;12.85;3.80;;;;;;;;;;5028392;28;20411;-64
2022/11/24 06:10:11;;;;;;;18.95;3.83;;;;;;;;;;5038646;28;20257;-64
2022/11/24 06:12:37;;;;;;;18.20;3.80;;;;;;;;;;5049880;22;20053;-57
2022/11/24 06:15:03;;;;;;;13.85;3.38;;;;;;;;;;5032615;28;20087;-57
2022/11/24 06:17:29;;;;;;;13.63;4.00;;;;;;;;;;5033417;28;20124;-58
2022/11/24 06:19:56;;;;;;;15.05;4.53;;;;;;;;;;5035087;28;20510;-60
2022/11/24 06:22:22;;;;;;;14.23;4.55;;;;;;;;;;5043711;28;20091;-59
2022/11/24 06:24:50;;;;;;;16.23;4.00;;;;;;;;;;5038219;28;20045;-59
2022/11/24 06:27:16;;;;;;;11.02;4.07;;;;;;;;;;5041080;28;20121;-59
2022/11/24 06:29:41;;;;;;;10.63;3.58;;;7.80;99.90;;;;;;5034945;28;20038;-57
2022/11/24 06:32:07;;;;;;;17.40;4.32;;;;;;;;;;5040021;28;20045;-57
2022/11/24 06:34:33;;;;;;;15.73;4.70;;;;;;;;;;5039494;28;20533;-59
2022/11/24 06:36:59;;;;;;;14.75;3.90;;;;;;;;;;5030097;28;20072;-59
2022/11/24 06:39:26;;;;;;;11.05;3.92;;;;;;;;;;5034806;28;20033;-58
2022/11/24 06:41:52;;;;;;;20.73;4.18;;;7.40;99.90;;;;;;5032709;28;20514;-58
2022/11/24 06:44:21;;;;;;;19.73;4.50;;;8.00;99.90;;;;;;5039448;28;20065;-58
2022/11/24 06:46:47;;;;;;;9.98;3.67;;;;;;;;;;5012417;28;20054;-56
2022/11/24 06:49:13;;;;;;;19.67;4.50;;;;;;;;;;5030530;28;20112;-61
2022/11/24 06:51:39;;;;;;;15.65;4.82;;;7.20;99.90;;;;;;5030392;28;20084;-59
2022/11/24 06:54:06;;;;;;;15.05;4.40;;;;;;;;;;5029289;28;20064;-57
2022/11/24 06:56:32;;;;;;;18.27;4.70;;;;;;;;;;5028017;28;20116;-59
2022/11/24 06:58:57;;;;;;;13.68;4.72;;;7.00;99.90;;;;;;5011171;28;20504;-58
2022/11/24 07:01:25;;;;;;;13.30;4.28;;;;;;;;;;5035504;28;20065;-57
2022/11/24 07:03:52;;;;;;;15.57;3.90;;;;;;;;;;5029854;28;20052;-57
2022/11/24 07:06:19;;;;;;;15.88;4.88;;;7.00;99.90;;;;;;5033954;28;20033;-56
2022/11/24 07:08:45;;;;;;;14.80;3.88;;;;;;;;;;5028252;28;20065;-57
2022/11/24 07:11:14;;;;;;;20.80;4.97;;;;;;;;;;5039570;28;20037;-56
2022/11/24 07:13:41;;;;;;;12.38;3.78;;;;;;;;;;5031067;28;20499;-57
2022/11/24 07:16:14;;;;;;;13.55;4.05;;;;;;;;;;5019924;28;20488;-58
2022/11/24 07:18:40;;;;;;;13.85;4.60;;;;;;;;;;5036559;28;20041;-57
2022/11/24 07:21:06;;;;;;;14.35;3.78;;;;;;;;;;5031222;28;20089;-57
2022/11/24 07:23:32;;;;;;;12.10;4.07;;;;;;;;;;5013408;28;20124;-57
2022/11/24 07:25:58;;;;;;;12.38;4.47;;;6.70;99.90;;;;;;5032065;28;20403;-56
2022/11/24 07:28:24;;;;;;;13.52;4.13;;;;;;;;;;5035082;28;20044;-57
2022/11/24 07:30:50;;;;;;;14.35;3.92;;;;;;;;;;5031587;28;20037;-56
2022/11/24 07:33:19;;;;;;;11.13;3.67;;;;;;;;;;5029818;28;20038;-57
2022/11/24 07:35:45;;;;;;;14.75;4.15;;;;;;;;;;5029847;28;20037;-57
2022/11/24 07:38:11;;;;;;;11.98;3.90;;;;;;;;;;5029578;28;20154;-56
2022/11/24 07:40:37;;;;;;;10.70;3.58;;;;;;;;;;5029734;28;20487;-57
2022/11/24 07:43:03;;;;;;;14.30;4.55;;;;;;;;;;5030491;28;20124;-57
2022/11/24 07:45:29;;;;;;;11.48;3.88;;;;;;;;;;5024988;28;20067;-56
2022/11/24 07:47:54;;;;;;;11.77;3.70;;;6.60;99.90;;;;;;5037641;28;20029;-57
2022/11/24 07:50:20;;;;;;;13.93;4.18;;;;;;;;;;5041234;28;20029;-57
2022/11/24 07:52:46;;;;;;;11.70;4.00;;;;;;;;;;5030058;28;20037;-57
2022/11/24 07:55:13;;;;;;;16.20;4.22;;;;;;;;;;5030417;28;20074;-57
2022/11/24 07:57:39;;;;;;;13.05;3.88;;;;;;;;;;5029607;28;20474;-57
2022/11/24 08:00:06;;;;;;;12.63;3.80;;;7.00;99.90;;;;;;5034278;28;20112;-56
2022/11/24 08:02:32;;;;;;;13.23;4.18;;;7.10;99.90;;;;;;5029285;28;20545;-56
2022/11/24 08:04:58;;;;;;;11.25;3.55;;;7.20;99.90;;;;;;5029526;28;20121;-57
2022/11/24 08:07:23;;;;;;;14.27;4.22;;;7.40;99.90;;;;;;5011077;28;20116;-56
2022/11/24 08:09:50;;;;;;;13.13;4.63;;;;;;;;;;5029243;28;20041;-56
2022/11/24 08:12:20;;;;;;;11.82;4.45;;;7.70;99.90;;;;;;5029197;28;20094;-56
2022/11/24 08:14:47;;;;;;;13.85;4.60;;;;;;;;;;5013269;28;20052;-58
2022/11/24 08:17:13;;;;;;;10.70;4.28;;;;;;;;;;5028888;28;20037;-57
2022/11/24 08:19:39;;;;;;;14.90;4.93;;;;;;;;;;5029284;28;20048;-56
2022/11/24 08:22:05;;;;;;;10.68;4.05;;;8.10;99.90;;;;;;5011576;28;20042;-58
2022/11/24 08:24:31;;;;;;;10.88;4.97;;;;;;;;;;5011243;28;20071;-57
2022/11/24 08:26:57;;;;;;;13.02;4.28;;;;;;;;;;5028680;28;20234;-57
2022/11/24 08:29:23;;;;;;;13.95;4.97;;;;;;;;;;5029539;28;20033;-57
2022/11/24 08:31:49;;;;;;;11.73;3.78;;;;;;;;;;5021782;28;20052;-57
2022/11/24 08:34:14;;;;;;;10.60;3.70;;;8.00;99.90;;;;;;5029640;28;20510;-57
2022/11/24 08:36:40;;;;;;;18.00;4.10;;;;;;;;;;5029115;28;20048;-57
2022/11/24 08:39:06;;;;;;;10.80;4.03;;;8.00;99.90;;;;;;5029017;28;20459;-56
2022/11/24 08:41:32;;;;;;;9.93;2.85;;;;;;;;;;5029295;28;20129;-56
2022/11/24 08:43:58;;;;;;;16.35;3.50;;;;;;;;;;5016229;28;20049;-57
2022/11/24 08:46:24;;;;;;;11.73;3.47;;;;;;;;;;5036178;28;20033;-57
2022/11/24 08:48:52;;;;;;;8.05;2.40;;;8.30;99.90;;;;;;5030251;28;20041;-57
2022/11/24 08:51:21;;;;;;;11.15;2.97;;;8.10;99.90;;;;;;5030348;28;20045;-57
2022/11/24 08:53:47;;;;;;;10.07;2.28;;;;;;;;;;5011873;28;20542;-57
2022/11/24 08:56:13;;;;;;;13.38;2.63;;;;;;;;;;5029179;28;20213;-57
2022/11/24 08:58:39;;;;;;;10.77;2.60;;;;;;;;;;5028756;28;20037;-58
2022/11/24 09:01:06;;;;;;;8.73;2.58;;;;;;;;;;5029953;28;20037;-57
2022/11/24 09:03:32;;;;;;;14.05;2.67;;;;;;;;;;5028777;28;20078;-57
2022/11/24 09:05:58;;;;;;;9.30;2.35;;;;;;;;;;5028518;28;20107;-58
2022/11/24 09:08:24;;;;;;;8.73;2.13;;;;;;;;;;5028674;28;20037;-57
2022/11/24 09:10:50;;;;;;;8.48;2.53;;;;;;;;;;5028002;28;20107;-56
2022/11/24 09:13:16;;;;;;;5.57;1.67;;;;;;;;;;5032748;28;20396;-55
2022/11/24 09:15:42;;;;;;;6.22;1.77;;;;;;;;;;5029715;28;20092;-56
2022/11/24 09:18:08;;;;;;;10.57;1.90;;;;;;;;;;5026815;28;20449;-56
2022/11/24 09:20:34;;;;;;;8.68;1.67;;;;;;;;;;5029081;28;20056;-56
2022/11/24 09:23:00;;;;;;;6.35;1.73;;;;;;;;;;5033637;28;20045;-57
2022/11/24 09:25:26;;;;;;;7.88;1.98;;;;;;;;;;5036056;28;20038;-57
2022/11/24 09:27:53;;;;;;;8.30;2.20;;;8.30;99.90;;;;;;5027526;28;20530;-57
2022/11/24 09:30:19;;;;;;;6.95;1.75;;;;;;;;;;5029298;28;20384;-57
2022/11/24 09:32:45;;;;;;;8.20;1.90;;;;;;;;;;5028488;28;20434;-57
2022/11/24 09:35:12;;;;;;;10.13;2.30;;;;;;;;;;5028552;28;20065;-56
2022/11/24 09:37:38;;;;;;;7.25;2.03;;;;;;;;;;5028087;28;20446;-57
2022/11/24 09:40:04;;;;;;;7.70;1.90;;;;;;;;;;5027286;28;20079;-57
2022/11/24 09:42:39;;;;;;;6.05;1.83;;;;;;;;;;5027012;28;20129;-57
2022/11/24 09:45:38;;;;;;;11.93;2.00;;;8.40;99.90;;;;;;5029464;28;20096;-57
2022/11/24 09:48:11;;;;;;;7.30;2.30;;;;;;;;;;5034064;28;20044;-56
2022/11/24 09:50:37;;;;;;;6.30;1.83;;;;;;;;;;5030605;28;20075;-57
2022/11/24 09:53:15;;;;;;;6.65;2.45;;;;;;;;;;5014622;28;20073;-57
2022/11/24 09:55:44;;;;;;;10.70;2.33;;;9.00;99.90;;;;;;5030930;28;20112;-57
2022/11/24 09:58:22;;;;;;;10.13;2.10;;;;;;;;;;5031686;28;20092;-58
2022/11/24 10:00:50;;;;;;;7.32;2.05;;;;;;;;;;5030191;28;20041;-56
2022/11/24 10:03:20;;;;;;;8.20;2.63;;;;;;;;;;5032062;28;20403;-56
2022/11/24 10:05:48;;;;;;;10.35;2.47;;;;;;;;;;5031537;28;20057;-57
2022/11/24 10:08:22;;;;;;;6.45;2.30;;;9.30;99.90;;;;;;5031620;28;20033;-57
2022/11/24 10:10:56;;;;;;;8.88;3.05;;;;;;;;;;5013933;28;20534;-57
2022/11/24 10:13:34;;;;;;;14.63;3.13;;;;;;;;;;5031474;28;20045;-57
2022/11/24 10:16:03;;;;;;;9.77;2.03;;;;;;;;;;5031213;28;20037;-57
2022/11/24 10:18:37;;;;;;;11.60;3.45;;;;;;;;;;5030972;28;20065;-56
2022/11/24 10:21:06;;;;;;;8.63;2.25;;;;;;;;;;5031265;28;20040;-56
2022/11/24 10:23:39;;;;;;;6.43;2.35;;;9.20;99.90;;;;;;5031416;28;20065;-56
2022/11/24 10:26:24;;;;;;;7.18;2.65;;;;;;;;;;5031234;28;20134;-57
2022/11/24 10:28:54;;;;;;;6.72;2.35;;;9.10;99.90;;;;;;5012999;28;20049;-55
2022/11/24 10:31:40;;;;;;;6.93;2.95;;;9.20;99.90;;;;;;5030913;28;20116;-57
2022/11/24 10:34:14;;;;;;;9.52;2.67;;;;;;;;;;5024754;28;20113;-57
2022/11/24 10:36:58;;;;;;;9.88;3.00;;;;;;;;;;5031036;28;20096;-56
2022/11/24 10:39:34;;;;;;;8.20;2.83;;;9.50;99.90;;;;;;5031293;28;20450;-55
2022/11/24 10:42:28;;;;;;;8.23;3.15;;;9.50;99.90;;;;;;5030670;28;20495;-56
2022/11/24 10:45:03;;;;;;;10.48;3.33;;;;;;;;;;5025264;28;20073;-55
2022/11/24 10:47:29;;;;;;;8.05;3.13;;;;;;;;;;5039171;28;20480;-57
2022/11/24 10:50:24;;;;;;;11.23;3.47;;;9.60;99.90;;;;;;5013401;28;20042;-55
2022/11/24 10:52:50;;;;;;;11.10;3.65;;;;;;;;;;5029637;28;20052;-58
2022/11/24 10:55:16;;;;;;;11.32;3.67;;;;;;;;;;5030783;28;20036;-56
2022/11/24 10:57:44;;;;;;;9.40;4.10;;;;;;;;;;5030182;28;20142;-57
2022/11/24 11:00:18;;;;;;;10.07;3.58;;;9.50;99.90;;;;;;5011188;28;20168;-56
2022/11/24 11:02:44;;;;;;;;;;;;;;;;;;5030330;28;20127;-57
2022/11/24 11:05:22;;;;;;;9.43;4.40;;;;;;;;;;5030535;28;19968;-57
2022/11/24 11:07:48;;;;;;;11.75;4.18;;;9.80;99.90;;;;;;5012150;28;20124;-57
2022/11/24 11:10:19;;;;;;;10.90;4.10;;;;;;;;;;5029851;28;20164;-57
2022/11/24 11:12:45;;;;;;;14.40;4.03;;;;;;;;;;5028254;28;20046;-57
2022/11/24 11:15:29;;;;;;;9.70;3.78;;;;;;;;;;5031208;28;20030;-58
2022/11/24 11:17:59;;;;;;;8.27;3.42;;;9.80;99.90;;;;;;5026461;28;20036;-56
2022/11/24 11:20:32;;;;;;;7.47;3.97;;;;;;;;;;5016573;28;20044;-57
2022/11/24 11:23:00;;;;;;;7.18;3.63;;;;;;;;;;5005483;28;20080;-57
2022/11/24 11:25:31;;;;;;;10.75;4.93;;;;;;;;;;5030794;28;20048;-57
2022/11/24 11:28:16;;;;;;;10.90;4.88;;;;;;;;;;5028729;28;20044;-58
2022/11/24 11:30:54;;;;;;;10.95;4.20;;;;;;;;;;5030478;28;20056;-56
2022/11/24 11:33:23;;;;;;;9.93;3.83;;;;;;;;;;5015098;28;20450;-58
2022/11/24 11:35:49;;;;;;;9.18;4.20;;;;;;;;;;5030738;28;20076;-57
2022/11/24 11:38:15;;;;;;;11.23;4.28;;;;;;;;;;5033622;28;20452;-56
2022/11/24 11:40:42;;;;;;;12.10;4.10;;;10.30;99.90;;;;;;5029195;28;20077;-56
2022/11/24 11:43:35;;;;;;;9.13;4.18;;;;;;;;;;5013149;28;20510;-57
2022/11/24 11:46:10;;;;;;;13.35;4.75;;;10.70;99.90;;;;;;5010242;28;20482;-57
2022/11/24 11:48:37;;;;;;;12.35;3.92;;;;;;;;;;5030171;28;20029;-56
2022/11/24 11:51:22;;;;;;;8.25;3.60;;;;;;;;;;5040020;28;20398;-57
2022/11/24 11:53:53;;;;;;;10.55;3.55;;;;;;;;;;5029671;28;20045;-57
2022/11/24 11:56:26;;;;;;;13.48;4.20;;;;;;;;;;5029792;28;20099;-56
2022/11/24 11:58:54;;;;;;;9.18;3.35;;;10.60;99.90;;;;;;5028837;28;20076;-56
2022/11/24 12:01:27;;;;;;;12.68;4.22;;;;;;;;;;5011031;28;20117;-58
2022/11/24 12:04:09;;;;;;;12.45;4.07;;;11.20;99.90;;;;;;5017606;28;20033;-57
2022/11/24 12:07:12;;;;;;;11.98;3.55;;;11.50;99.90;;;;;;5037974;28;20037;-57
2022/11/24 12:09:56;;;;;;;12.18;3.53;;;;;;;;;;5024903;28;20068;-57
2022/11/24 12:12:46;;;;;;;11.93;3.75;;;11.40;99.90;;;;;;5072596;22;20053;-64
2022/11/24 12:15:18;;;;;;;10.60;3.05;;;11.90;99.90;;;;;;5020232;28;20040;-63
2022/11/24 12:18:06;;;;;;;10.45;3.50;;;12.60;99.90;;;;;;5013298;28;20107;-64
2022/11/24 12:20:35;;;;;;;10.90;3.38;;;;;;;;;;5001204;28;20084;-63
2022/11/24 12:23:26;;;;;;;13.07;3.58;;;12.10;99.90;;;;;;5024426;28;20116;-63
2022/11/24 12:25:52;;;;;;;8.65;3.10;;;;;;;;;;5020584;28;20099;-63
2022/11/24 12:28:33;;;;;;;9.40;2.90;;;;;;;;;;5022763;28;20446;-63
2022/11/24 12:31:08;;;;;;;12.80;3.53;;;15.70;99.90;;;;;;5018646;28;20034;-64
2022/11/24 12:34:12;;;;;;;9.43;3.10;;;16.90;99.90;;;;;;5029238;28;20041;-64
2022/11/24 12:36:48;;;;;;;10.23;3.40;;;;;;;;;;4946783;28;20039;-63
2022/11/24 12:39:23;;;;;;;10.73;3.00;;;;;;;;;;4934326;28;20047;-64
2022/11/24 12:42:01;;;;;;;12.13;3.47;;;;;;;;;;4986940;28;20070;-64
2022/11/24 12:44:34;;;;;;;12.48;3.20;;;18.50;99.90;;;;;;5018398;28;20488;-64
2022/11/24 12:47:04;;;;;;;9.82;2.58;;;;;;;;;;5019762;28;20056;-64
2022/11/24 12:49:30;;;;;;;11.80;3.22;;;;;;;;;;5021324;28;20381;-64
2022/11/24 12:52:00;;;;;;;9.57;2.88;;;;;;;;;;5011439;28;20112;-64
2022/11/24 12:54:29;;;;;;;9.00;2.78;;;;;;;;;;4996565;28;20236;-64
2022/11/24 12:57:08;;;;;;;12.00;3.33;;;19.00;99.90;;;;;;5025339;28;20037;-64
2022/11/24 12:59:44;;;;;;;7.35;2.50;;;19.20;99.90;;;;;;5013473;28;20450;-64
2022/11/24 13:02:47;;;;;;;9.70;2.88;;;19.00;99.90;;;;;;5019405;28;20041;-64
2022/11/24 13:05:21;;;;;;;8.18;2.58;;;18.60;99.90;;;;;;5006136;28;20077;-64
2022/11/24 13:07:48;;;;;;;;;;;17.90;99.90;;;;;;5021509;28;20037;-64
2022/11/24 13:10:23;;;;;;;9.30;2.35;;;18.20;99.90;;;;;;5023390;28;19956;-64
2022/11/24 13:13:02;;;;;;;11.75;3.08;;;17.00;99.90;;;;;;5015720;28;20068;-63
2022/11/24 13:15:29;;;;;;;13.63;3.53;;;17.70;99.90;;;;;;5020224;28;20041;-64
2022/11/24 13:17:55;;;;;;;11.88;3.40;;;17.80;99.90;;;;;;5011837;28;20089;-64
2022/11/24 13:20:28;;;;;;;13.68;2.90;;;;;;;;;;5020961;28;20038;-63
2022/11/24 13:22:58;;;;;;;10.00;2.78;;;18.10;99.90;;;;;;5012300;28;20034;-64
2022/11/24 13:25:29;;;;;;;9.88;2.80;;;18.30;99.90;;;;;;5018039;28;20721;-63
2022/11/24 13:27:59;;;;;;;15.80;2.97;;;17.80;99.90;;;;;;5003346;28;20534;-63
2022/11/24 13:30:34;;;;;;;10.73;2.67;;;17.20;99.90;;;;;;5016643;28;20042;-63
2022/11/24 13:33:00;;;;;;;;;;;17.00;99.90;;;;;;5032374;28;20043;-64
2022/11/24 13:35:26;;;;;;;10.90;2.53;;;15.40;99.90;;;;;;5033243;28;19921;-63
2022/11/24 13:37:52;;;;;;;14.88;2.90;;;16.00;99.90;;;;;;5021160;28;20119;-63
2022/11/24 13:40:21;;;;;;;14.32;4.05;;;15.00;99.90;;;;;;5032596;28;20035;-63
2022/11/24 13:42:56;;;;;;;13.55;4.05;;;;;;;;;;5017509;28;20041;-63
2022/11/24 13:45:48;;;;;;;17.05;4.38;;;13.90;99.90;;;;;;5024475;28;20041;-63
2022/11/24 13:48:19;;;;;;;15.68;3.97;;;13.80;99.90;;;;;;5032254;28;20171;-63
2022/11/24 13:50:52;;;;;;;13.73;2.92;;;12.60;99.90;;;;;;5019002;28;20037;-63
2022/11/24 13:53:37;;;;;;;12.00;3.17;;;;;;;;;;5020544;28;20069;-63
2022/11/24 13:56:11;;;;;;;9.73;2.85;;;12.20;99.90;;;;;;5032813;28;20449;-63
2022/11/24 13:58:46;;;;;;;13.13;2.85;;;12.40;99.90;;;;;;5021675;28;20080;-66
2022/11/24 14:01:18;;;;;;;9.10;2.63;;;12.40;99.90;;;;;;5016562;28;20041;-62
2022/11/24 14:03:58;;;;;;;12.90;3.25;;;12.10;99.90;;;;;;5022112;28;20037;-63